sensor_id;sensor_type;location;lat;lon;timestamp;P1;durP1;ratioP1;P2;durP2;ratioP2
54502;SDS011;40411;50.090;21.954;2023-06-14T00:02:06;13.90;;;8.00;;
54502;SDS011;40411;50.090;21.954;2023-06-14T00:04:35;15.00;;;8.48;;
54502;SDS011;40411;50.090;21.954;2023-06-14T00:07:01;12.75;;;7.65;;
54502;SDS011;40411;50.090;21.954;2023-06-14T00:09:27;14.35;;;7.85;;
54502;SDS011;40411;50.090;21.954;2023-06-14T00:11:53;12.95;;;7.80;;
54502;SDS011;40411;50.090;21.954;2023-06-14T00:14:19;17.80;;;7.70;;
54502;SDS011;40411;50.090;21.954;2023-06-14T00:16:45;18.25;;;7.65;;
54502;SDS011;40411;50.090;21.954;2023-06-14T00:19:11;13.10;;;7.35;;
54502;SDS011;40411;50.090;21.954;2023-06-14T00:21:37;12.50;;;7.40;;
54502;SDS011;40411;50.090;21.954;2023-06-14T00:24:04;12.05;;;6.93;;
54502;SDS011;40411;50.090;21.954;2023-06-14T00:26:30;23.42;;;6.70;;
54502;SDS011;40411;50.090;21.954;2023-06-14T00:28:56;13.43;;;7.40;;
54502;SDS011;40411;50.090;21.954;2023-06-14T00:31:22;12.60;;;7.75;;
54502;SDS011;40411;50.090;21.954;2023-06-14T00:33:48;13.10;;;7.35;;
54502;SDS011;40411;50.090;21.954;2023-06-14T00:36:14;14.00;;;7.75;;
54502;SDS011;40411;50.090;21.954;2023-06-14T00:38:42;11.73;;;7.30;;
54502;SDS011;40411;50.090;21.954;2023-06-14T00:41:08;16.05;;;7.30;;
54502;SDS011;40411;50.090;21.954;2023-06-14T00:43:34;15.40;;;6.60;;
54502;SDS011;40411;50.090;21.954;2023-06-14T00:46:00;12.52;;;7.65;;
54502;SDS011;40411;50.090;21.954;2023-06-14T00:48:27;12.68;;;6.90;;
54502;SDS011;40411;50.090;21.954;2023-06-14T00:50:54;17.23;;;7.40;;
54502;SDS011;40411;50.090;21.954;2023-06-14T00:53:20;14.40;;;6.15;;
54502;SDS011;40411;50.090;21.954;2023-06-14T00:55:48;11.05;;;6.63;;
54502;SDS011;40411;50.090;21.954;2023-06-14T00:58:16;19.50;;;7.28;;
54502;SDS011;40411;50.090;21.954;2023-06-14T01:00:42;13.25;;;7.60;;
54502;SDS011;40411;50.090;21.954;2023-06-14T01:03:08;11.77;;;6.43;;
54502;SDS011;40411;50.090;21.954;2023-06-14T01:05:38;11.40;;;6.97;;
54502;SDS011;40411;50.090;21.954;2023-06-14T01:13:27;14.73;;;7.03;;
54502;SDS011;40411;50.090;21.954;2023-06-14T01:15:54;11.00;;;6.80;;
54502;SDS011;40411;50.090;21.954;2023-06-14T01:18:21;13.65;;;6.63;;
54502;SDS011;40411;50.090;21.954;2023-06-14T01:20:49;13.10;;;6.60;;
54502;SDS011;40411;50.090;21.954;2023-06-14T01:23:16;14.13;;;7.35;;
54502;SDS011;40411;50.090;21.954;2023-06-14T01:25:42;17.95;;;7.15;;
54502;SDS011;40411;50.090;21.954;2023-06-14T01:28:11;13.23;;;6.35;;
54502;SDS011;40411;50.090;21.954;2023-06-14T01:30:41;16.63;;;7.60;;
54502;SDS011;40411;50.090;21.954;2023-06-14T01:33:17;16.67;;;8.00;;
54502;SDS011;40411;50.090;21.954;2023-06-14T01:35:46;24.90;;;8.15;;
54502;SDS011;40411;50.090;21.954;2023-06-14T01:38:14;13.70;;;7.38;;
54502;SDS011;40411;50.090;21.954;2023-06-14T01:40:40;13.65;;;7.07;;
54502;SDS011;40411;50.090;21.954;2023-06-14T01:43:09;16.67;;;7.88;;
54502;SDS011;40411;50.090;21.954;2023-06-14T01:45:36;12.00;;;6.93;;
54502;SDS011;40411;50.090;21.954;2023-06-14T01:48:04;14.90;;;7.43;;
54502;SDS011;40411;50.090;21.954;2023-06-14T01:50:30;20.42;;;7.32;;
54502;SDS011;40411;50.090;21.954;2023-06-14T01:52:57;16.02;;;7.30;;
54502;SDS011;40411;50.090;21.954;2023-06-14T01:55:23;15.85;;;7.57;;
54502;SDS011;40411;50.090;21.954;2023-06-14T01:57:53;15.40;;;7.10;;
54502;SDS011;40411;50.090;21.954;2023-06-14T02:00:19;15.40;;;7.68;;
54502;SDS011;40411;50.090;21.954;2023-06-14T02:02:48;14.82;;;6.97;;
54502;SDS011;40411;50.090;21.954;2023-06-14T02:05:14;12.95;;;7.38;;
54502;SDS011;40411;50.090;21.954;2023-06-14T02:07:44;11.98;;;7.13;;
54502;SDS011;40411;50.090;21.954;2023-06-14T02:10:14;12.73;;;7.10;;
54502;SDS011;40411;50.090;21.954;2023-06-14T02:12:41;11.18;;;7.05;;
54502;SDS011;40411;50.090;21.954;2023-06-14T02:15:06;17.25;;;8.00;;
54502;SDS011;40411;50.090;21.954;2023-06-14T02:17:33;12.02;;;6.88;;
54502;SDS011;40411;50.090;21.954;2023-06-14T02:20:04;13.18;;;7.10;;
54502;SDS011;40411;50.090;21.954;2023-06-14T02:22:31;17.30;;;7.10;;
54502;SDS011;40411;50.090;21.954;2023-06-14T02:24:57;13.70;;;7.28;;
54502;SDS011;40411;50.090;21.954;2023-06-14T02:27:23;13.60;;;7.80;;
54502;SDS011;40411;50.090;21.954;2023-06-14T02:29:49;16.60;;;7.85;;
54502;SDS011;40411;50.090;21.954;2023-06-14T02:32:15;15.70;;;7.43;;
54502;SDS011;40411;50.090;21.954;2023-06-14T02:34:41;14.40;;;8.05;;
54502;SDS011;40411;50.090;21.954;2023-06-14T02:37:07;14.32;;;6.78;;
54502;SDS011;40411;50.090;21.954;2023-06-14T02:39:32;13.90;;;7.70;;
54502;SDS011;40411;50.090;21.954;2023-06-14T02:41:58;13.50;;;6.82;;
54502;SDS011;40411;50.090;21.954;2023-06-14T02:44:26;19.52;;;8.50;;
54502;SDS011;40411;50.090;21.954;2023-06-14T02:46:53;13.50;;;7.50;;
54502;SDS011;40411;50.090;21.954;2023-06-14T02:49:20;17.00;;;8.05;;
54502;SDS011;40411;50.090;21.954;2023-06-14T02:51:47;16.02;;;8.85;;
54502;SDS011;40411;50.090;21.954;2023-06-14T02:54:13;14.07;;;7.70;;
54502;SDS011;40411;50.090;21.954;2023-06-14T02:56:39;14.27;;;8.43;;
54502;SDS011;40411;50.090;21.954;2023-06-14T02:59:07;12.38;;;7.97;;
54502;SDS011;40411;50.090;21.954;2023-06-14T03:01:35;15.38;;;7.95;;
54502;SDS011;40411;50.090;21.954;2023-06-14T03:04:06;13.45;;;8.00;;
54502;SDS011;40411;50.090;21.954;2023-06-14T03:06:35;16.90;;;8.90;;
54502;SDS011;40411;50.090;21.954;2023-06-14T03:09:02;17.23;;;8.43;;
54502;SDS011;40411;50.090;21.954;2023-06-14T03:14:01;15.52;;;7.18;;
54502;SDS011;40411;50.090;21.954;2023-06-14T03:16:30;11.70;;;7.70;;
54502;SDS011;40411;50.090;21.954;2023-06-14T03:18:57;15.30;;;7.50;;
54502;SDS011;40411;50.090;21.954;2023-06-14T03:21:26;14.02;;;8.13;;
54502;SDS011;40411;50.090;21.954;2023-06-14T03:23:55;14.00;;;8.23;;
54502;SDS011;40411;50.090;21.954;2023-06-14T03:26:21;14.25;;;6.97;;
54502;SDS011;40411;50.090;21.954;2023-06-14T03:28:50;13.32;;;7.68;;
54502;SDS011;40411;50.090;21.954;2023-06-14T03:31:17;15.45;;;7.65;;
54502;SDS011;40411;50.090;21.954;2023-06-14T03:33:44;17.15;;;7.65;;
54502;SDS011;40411;50.090;21.954;2023-06-14T03:36:11;13.05;;;7.00;;
54502;SDS011;40411;50.090;21.954;2023-06-14T03:38:36;20.92;;;8.38;;
54502;SDS011;40411;50.090;21.954;2023-06-14T03:41:04;12.13;;;7.60;;
54502;SDS011;40411;50.090;21.954;2023-06-14T03:43:31;17.73;;;7.78;;
54502;SDS011;40411;50.090;21.954;2023-06-14T03:45:57;11.00;;;6.90;;
54502;SDS011;40411;50.090;21.954;2023-06-14T03:48:24;15.30;;;6.57;;
54502;SDS011;40411;50.090;21.954;2023-06-14T03:50:51;15.40;;;7.28;;
54502;SDS011;40411;50.090;21.954;2023-06-14T03:53:16;14.75;;;6.30;;
54502;SDS011;40411;50.090;21.954;2023-06-14T03:55:49;10.57;;;6.13;;
54502;SDS011;40411;50.090;21.954;2023-06-14T03:58:18;12.52;;;6.25;;
54502;SDS011;40411;50.090;21.954;2023-06-14T04:00:45;10.52;;;6.18;;
54502;SDS011;40411;50.090;21.954;2023-06-14T04:03:11;11.25;;;6.47;;
54502;SDS011;40411;50.090;21.954;2023-06-14T04:05:39;11.95;;;7.40;;
54502;SDS011;40411;50.090;21.954;2023-06-14T04:08:08;12.55;;;7.40;;
54502;SDS011;40411;50.090;21.954;2023-06-14T04:10:35;12.38;;;7.00;;
54502;SDS011;40411;50.090;21.954;2023-06-14T04:13:01;10.35;;;7.10;;
54502;SDS011;40411;50.090;21.954;2023-06-14T04:15:27;12.65;;;7.20;;
54502;SDS011;40411;50.090;21.954;2023-06-14T04:17:57;17.80;;;7.85;;
54502;SDS011;40411;50.090;21.954;2023-06-14T04:20:24;11.95;;;7.50;;
54502;SDS011;40411;50.090;21.954;2023-06-14T04:22:50;11.27;;;6.75;;
54502;SDS011;40411;50.090;21.954;2023-06-14T04:25:18;13.48;;;6.72;;
54502;SDS011;40411;50.090;21.954;2023-06-14T04:27:45;14.90;;;7.82;;
54502;SDS011;40411;50.090;21.954;2023-06-14T04:30:13;14.23;;;7.55;;
54502;SDS011;40411;50.090;21.954;2023-06-14T04:32:47;14.95;;;8.30;;
54502;SDS011;40411;50.090;21.954;2023-06-14T04:35:13;18.88;;;7.93;;
54502;SDS011;40411;50.090;21.954;2023-06-14T04:37:42;18.40;;;7.90;;
54502;SDS011;40411;50.090;21.954;2023-06-14T04:40:10;15.25;;;7.35;;
54502;SDS011;40411;50.090;21.954;2023-06-14T04:42:37;13.05;;;7.28;;
54502;SDS011;40411;50.090;21.954;2023-06-14T04:45:06;16.00;;;7.22;;
54502;SDS011;40411;50.090;21.954;2023-06-14T04:47:33;11.55;;;6.50;;
54502;SDS011;40411;50.090;21.954;2023-06-14T04:50:00;14.43;;;7.70;;
54502;SDS011;40411;50.090;21.954;2023-06-14T04:52:29;12.93;;;7.13;;
54502;SDS011;40411;50.090;21.954;2023-06-14T04:54:56;11.68;;;7.00;;
54502;SDS011;40411;50.090;21.954;2023-06-14T04:57:22;14.45;;;6.30;;
54502;SDS011;40411;50.090;21.954;2023-06-14T04:59:52;15.55;;;7.28;;
54502;SDS011;40411;50.090;21.954;2023-06-14T05:02:24;10.15;;;6.88;;
54502;SDS011;40411;50.090;21.954;2023-06-14T05:04:52;11.90;;;6.60;;
54502;SDS011;40411;50.090;21.954;2023-06-14T05:07:19;13.30;;;6.28;;
54502;SDS011;40411;50.090;21.954;2023-06-14T05:09:46;9.93;;;6.25;;
54502;SDS011;40411;50.090;21.954;2023-06-14T05:12:12;12.10;;;7.25;;
54502;SDS011;40411;50.090;21.954;2023-06-14T05:14:38;11.80;;;6.90;;
54502;SDS011;40411;50.090;21.954;2023-06-14T05:17:06;13.30;;;7.00;;
54502;SDS011;40411;50.090;21.954;2023-06-14T05:19:32;15.90;;;7.43;;
54502;SDS011;40411;50.090;21.954;2023-06-14T05:21:58;12.63;;;6.20;;
54502;SDS011;40411;50.090;21.954;2023-06-14T05:24:24;11.02;;;6.78;;
54502;SDS011;40411;50.090;21.954;2023-06-14T05:26:50;11.60;;;6.70;;
54502;SDS011;40411;50.090;21.954;2023-06-14T05:29:16;15.80;;;7.57;;
54502;SDS011;40411;50.090;21.954;2023-06-14T05:31:42;15.32;;;7.40;;
54502;SDS011;40411;50.090;21.954;2023-06-14T05:34:08;11.65;;;6.90;;
54502;SDS011;40411;50.090;21.954;2023-06-14T05:36:33;13.25;;;7.70;;
54502;SDS011;40411;50.090;21.954;2023-06-14T05:38:59;12.25;;;8.10;;
54502;SDS011;40411;50.090;21.954;2023-06-14T05:41:26;15.90;;;9.10;;
54502;SDS011;40411;50.090;21.954;2023-06-14T05:43:53;16.60;;;8.10;;
54502;SDS011;40411;50.090;21.954;2023-06-14T05:46:20;13.57;;;8.30;;
54502;SDS011;40411;50.090;21.954;2023-06-14T05:48:50;14.88;;;7.97;;
54502;SDS011;40411;50.090;21.954;2023-06-14T05:51:16;11.90;;;6.45;;
54502;SDS011;40411;50.090;21.954;2023-06-14T05:53:45;12.18;;;7.88;;
54502;SDS011;40411;50.090;21.954;2023-06-14T05:56:11;13.05;;;7.95;;
54502;SDS011;40411;50.090;21.954;2023-06-14T05:58:38;16.60;;;9.15;;
54502;SDS011;40411;50.090;21.954;2023-06-14T06:01:03;12.48;;;8.32;;
54502;SDS011;40411;50.090;21.954;2023-06-14T06:03:29;15.07;;;8.50;;
54502;SDS011;40411;50.090;21.954;2023-06-14T06:05:55;19.20;;;7.47;;
54502;SDS011;40411;50.090;21.954;2023-06-14T06:08:21;15.38;;;7.78;;
54502;SDS011;40411;50.090;21.954;2023-06-14T06:10:47;11.15;;;7.22;;
54502;SDS011;40411;50.090;21.954;2023-06-14T06:13:13;13.30;;;7.80;;
54502;SDS011;40411;50.090;21.954;2023-06-14T06:15:38;16.98;;;7.15;;
54502;SDS011;40411;50.090;21.954;2023-06-14T06:18:04;12.68;;;8.35;;
54502;SDS011;40411;50.090;21.954;2023-06-14T06:20:30;13.13;;;8.45;;
54502;SDS011;40411;50.090;21.954;2023-06-14T06:22:57;15.18;;;8.25;;
54502;SDS011;40411;50.090;21.954;2023-06-14T06:25:24;13.05;;;8.38;;
54502;SDS011;40411;50.090;21.954;2023-06-14T06:27:52;12.48;;;7.78;;
54502;SDS011;40411;50.090;21.954;2023-06-14T06:30:19;13.07;;;8.43;;
54502;SDS011;40411;50.090;21.954;2023-06-14T06:32:46;11.30;;;7.20;;
54502;SDS011;40411;50.090;21.954;2023-06-14T06:35:12;13.52;;;7.78;;
54502;SDS011;40411;50.090;21.954;2023-06-14T06:37:41;16.77;;;8.55;;
54502;SDS011;40411;50.090;21.954;2023-06-14T06:40:07;16.63;;;8.18;;
54502;SDS011;40411;50.090;21.954;2023-06-14T06:42:34;14.32;;;8.32;;
54502;SDS011;40411;50.090;21.954;2023-06-14T06:45:03;14.23;;;7.70;;
54502;SDS011;40411;50.090;21.954;2023-06-14T06:47:29;11.18;;;7.63;;
54502;SDS011;40411;50.090;21.954;2023-06-14T06:49:55;18.30;;;7.07;;
54502;SDS011;40411;50.090;21.954;2023-06-14T06:52:21;14.90;;;7.70;;
54502;SDS011;40411;50.090;21.954;2023-06-14T06:54:47;11.75;;;7.78;;
54502;SDS011;40411;50.090;21.954;2023-06-14T06:57:13;15.55;;;8.65;;
54502;SDS011;40411;50.090;21.954;2023-06-14T06:59:39;16.38;;;7.28;;
54502;SDS011;40411;50.090;21.954;2023-06-14T07:02:05;15.77;;;7.72;;
54502;SDS011;40411;50.090;21.954;2023-06-14T07:04:31;12.45;;;7.40;;
54502;SDS011;40411;50.090;21.954;2023-06-14T07:06:57;12.85;;;7.85;;
54502;SDS011;40411;50.090;21.954;2023-06-14T07:09:24;14.57;;;7.65;;
54502;SDS011;40411;50.090;21.954;2023-06-14T07:11:50;14.20;;;7.55;;
54502;SDS011;40411;50.090;21.954;2023-06-14T07:14:16;13.10;;;8.07;;
54502;SDS011;40411;50.090;21.954;2023-06-14T07:16:42;11.85;;;6.95;;
54502;SDS011;40411;50.090;21.954;2023-06-14T07:19:08;16.55;;;7.07;;
54502;SDS011;40411;50.090;21.954;2023-06-14T07:21:35;11.32;;;6.28;;
54502;SDS011;40411;50.090;21.954;2023-06-14T07:24:04;10.70;;;7.20;;
54502;SDS011;40411;50.090;21.954;2023-06-14T07:26:33;14.35;;;7.85;;
54502;SDS011;40411;50.090;21.954;2023-06-14T07:29:00;14.48;;;7.00;;
54502;SDS011;40411;50.090;21.954;2023-06-14T07:31:28;12.70;;;7.32;;
54502;SDS011;40411;50.090;21.954;2023-06-14T07:33:53;17.00;;;6.07;;
54502;SDS011;40411;50.090;21.954;2023-06-14T07:36:19;14.40;;;7.32;;
54502;SDS011;40411;50.090;21.954;2023-06-14T07:38:45;14.57;;;7.05;;
54502;SDS011;40411;50.090;21.954;2023-06-14T07:41:12;14.68;;;5.40;;
54502;SDS011;40411;50.090;21.954;2023-06-14T07:43:37;9.77;;;5.93;;
54502;SDS011;40411;50.090;21.954;2023-06-14T07:46:03;10.77;;;6.43;;
54502;SDS011;40411;50.090;21.954;2023-06-14T07:48:29;10.35;;;5.68;;
54502;SDS011;40411;50.090;21.954;2023-06-14T07:50:55;13.48;;;5.82;;
54502;SDS011;40411;50.090;21.954;2023-06-14T07:53:21;14.45;;;5.70;;
54502;SDS011;40411;50.090;21.954;2023-06-14T07:55:47;11.20;;;5.45;;
54502;SDS011;40411;50.090;21.954;2023-06-14T07:58:14;11.57;;;6.38;;
54502;SDS011;40411;50.090;21.954;2023-06-14T08:00:40;12.95;;;5.93;;
54502;SDS011;40411;50.090;21.954;2023-06-14T08:03:06;9.82;;;5.53;;
54502;SDS011;40411;50.090;21.954;2023-06-14T08:05:32;10.80;;;6.38;;
54502;SDS011;40411;50.090;21.954;2023-06-14T08:07:58;11.70;;;6.32;;
54502;SDS011;40411;50.090;21.954;2023-06-14T08:10:24;15.70;;;6.47;;
54502;SDS011;40411;50.090;21.954;2023-06-14T08:12:49;13.15;;;6.55;;
54502;SDS011;40411;50.090;21.954;2023-06-14T08:15:16;13.43;;;6.45;;
54502;SDS011;40411;50.090;21.954;2023-06-14T08:17:42;11.52;;;6.20;;
54502;SDS011;40411;50.090;21.954;2023-06-14T08:20:09;14.23;;;6.57;;
54502;SDS011;40411;50.090;21.954;2023-06-14T08:22:36;11.10;;;6.20;;
54502;SDS011;40411;50.090;21.954;2023-06-14T08:25:03;13.43;;;7.10;;
54502;SDS011;40411;50.090;21.954;2023-06-14T08:27:29;9.63;;;5.57;;
54502;SDS011;40411;50.090;21.954;2023-06-14T08:29:56;13.25;;;6.40;;
54502;SDS011;40411;50.090;21.954;2023-06-14T08:32:22;9.25;;;6.07;;
54502;SDS011;40411;50.090;21.954;2023-06-14T08:34:48;12.77;;;6.60;;
54502;SDS011;40411;50.090;21.954;2023-06-14T08:37:14;14.05;;;6.30;;
54502;SDS011;40411;50.090;21.954;2023-06-14T08:39:40;13.77;;;7.45;;
54502;SDS011;40411;50.090;21.954;2023-06-14T08:42:06;16.63;;;7.63;;
54502;SDS011;40411;50.090;21.954;2023-06-14T08:44:34;10.77;;;7.18;;
54502;SDS011;40411;50.090;21.954;2023-06-14T08:47:00;15.98;;;7.43;;
54502;SDS011;40411;50.090;21.954;2023-06-14T08:49:26;14.63;;;7.20;;
54502;SDS011;40411;50.090;21.954;2023-06-14T08:51:54;14.70;;;8.05;;
54502;SDS011;40411;50.090;21.954;2023-06-14T08:54:25;11.70;;;8.18;;
54502;SDS011;40411;50.090;21.954;2023-06-14T08:56:55;13.40;;;8.20;;
54502;SDS011;40411;50.090;21.954;2023-06-14T08:59:28;12.98;;;7.90;;
54502;SDS011;40411;50.090;21.954;2023-06-14T09:01:54;14.40;;;8.00;;
54502;SDS011;40411;50.090;21.954;2023-06-14T09:04:20;16.65;;;8.05;;
54502;SDS011;40411;50.090;21.954;2023-06-14T09:06:56;13.23;;;7.72;;
54502;SDS011;40411;50.090;21.954;2023-06-14T09:09:22;15.65;;;8.52;;
54502;SDS011;40411;50.090;21.954;2023-06-14T09:11:51;12.35;;;7.90;;
54502;SDS011;40411;50.090;21.954;2023-06-14T09:14:18;15.43;;;8.02;;
54502;SDS011;40411;50.090;21.954;2023-06-14T09:16:44;11.43;;;7.63;;
54502;SDS011;40411;50.090;21.954;2023-06-14T09:19:14;11.45;;;7.43;;
54502;SDS011;40411;50.090;21.954;2023-06-14T09:21:48;12.20;;;7.40;;
54502;SDS011;40411;50.090;21.954;2023-06-14T09:24:15;13.20;;;8.23;;
54502;SDS011;40411;50.090;21.954;2023-06-14T09:26:40;11.38;;;7.05;;
54502;SDS011;40411;50.090;21.954;2023-06-14T09:29:06;13.02;;;8.55;;
54502;SDS011;40411;50.090;21.954;2023-06-14T09:31:34;15.95;;;7.60;;
54502;SDS011;40411;50.090;21.954;2023-06-14T09:34:01;12.02;;;7.15;;
54502;SDS011;40411;50.090;21.954;2023-06-14T09:36:30;15.60;;;6.63;;
54502;SDS011;40411;50.090;21.954;2023-06-14T09:39:01;16.00;;;6.65;;
54502;SDS011;40411;50.090;21.954;2023-06-14T09:41:31;11.07;;;5.97;;
54502;SDS011;40411;50.090;21.954;2023-06-14T09:44:02;11.27;;;6.20;;
54502;SDS011;40411;50.090;21.954;2023-06-14T09:46:30;11.52;;;5.80;;
54502;SDS011;40411;50.090;21.954;2023-06-14T09:48:59;14.60;;;6.38;;
54502;SDS011;40411;50.090;21.954;2023-06-14T09:51:26;11.07;;;5.97;;
54502;SDS011;40411;50.090;21.954;2023-06-14T09:53:55;10.45;;;5.60;;
54502;SDS011;40411;50.090;21.954;2023-06-14T09:58:55;12.27;;;6.22;;
54502;SDS011;40411;50.090;21.954;2023-06-14T10:01:23;8.93;;;5.85;;
54502;SDS011;40411;50.090;21.954;2023-06-14T10:04:01;13.90;;;5.90;;
54502;SDS011;40411;50.090;21.954;2023-06-14T10:06:28;10.88;;;5.90;;
54502;SDS011;40411;50.090;21.954;2023-06-14T10:08:58;10.38;;;5.93;;
54502;SDS011;40411;50.090;21.954;2023-06-14T10:11:26;10.23;;;5.70;;
54502;SDS011;40411;50.090;21.954;2023-06-14T10:13:53;14.10;;;5.88;;
54502;SDS011;40411;50.090;21.954;2023-06-14T10:19:34;16.65;;;5.55;;
54502;SDS011;40411;50.090;21.954;2023-06-14T10:22:18;11.05;;;5.78;;
54502;SDS011;40411;50.090;21.954;2023-06-14T10:27:16;9.65;;;5.97;;
54502;SDS011;40411;50.090;21.954;2023-06-14T10:32:18;14.23;;;6.10;;
54502;SDS011;40411;50.090;21.954;2023-06-14T10:34:49;12.32;;;6.45;;
54502;SDS011;40411;50.090;21.954;2023-06-14T10:37:19;12.75;;;7.03;;
54502;SDS011;40411;50.090;21.954;2023-06-14T10:39:45;9.82;;;5.65;;
54502;SDS011;40411;50.090;21.954;2023-06-14T10:42:11;10.02;;;5.63;;
54502;SDS011;40411;50.090;21.954;2023-06-14T10:49:49;12.75;;;7.22;;
54502;SDS011;40411;50.090;21.954;2023-06-14T10:52:17;10.98;;;7.00;;
54502;SDS011;40411;50.090;21.954;2023-06-14T10:57:24;12.70;;;6.63;;
54502;SDS011;40411;50.090;21.954;2023-06-14T10:59:50;11.65;;;6.70;;
54502;SDS011;40411;50.090;21.954;2023-06-14T11:05:05;10.13;;;6.97;;
54502;SDS011;40411;50.090;21.954;2023-06-14T11:12:58;19.45;;;9.90;;
54502;SDS011;40411;50.090;21.954;2023-06-14T11:15:28;13.15;;;7.15;;
54502;SDS011;40411;50.090;21.954;2023-06-14T11:17:58;17.67;;;7.03;;
54502;SDS011;40411;50.090;21.954;2023-06-14T11:20:27;13.70;;;7.43;;
54502;SDS011;40411;50.090;21.954;2023-06-14T11:22:55;15.38;;;7.43;;
54502;SDS011;40411;50.090;21.954;2023-06-14T11:25:21;15.35;;;8.13;;
54502;SDS011;40411;50.090;21.954;2023-06-14T11:27:50;18.08;;;8.68;;
54502;SDS011;40411;50.090;21.954;2023-06-14T11:30:17;13.25;;;7.75;;
54502;SDS011;40411;50.090;21.954;2023-06-14T11:32:50;15.52;;;7.85;;
54502;SDS011;40411;50.090;21.954;2023-06-14T11:35:17;11.38;;;7.18;;
54502;SDS011;40411;50.090;21.954;2023-06-14T11:37:44;10.38;;;6.43;;
54502;SDS011;40411;50.090;21.954;2023-06-14T11:40:10;12.88;;;6.38;;
54502;SDS011;40411;50.090;21.954;2023-06-14T11:42:40;11.32;;;6.55;;
54502;SDS011;40411;50.090;21.954;2023-06-14T11:45:07;13.25;;;6.75;;
54502;SDS011;40411;50.090;21.954;2023-06-14T11:47:34;12.25;;;8.18;;
54502;SDS011;40411;50.090;21.954;2023-06-14T11:50:02;9.25;;;6.70;;
54502;SDS011;40411;50.090;21.954;2023-06-14T11:52:28;10.98;;;5.90;;
54502;SDS011;40411;50.090;21.954;2023-06-14T11:54:55;11.48;;;6.15;;
54502;SDS011;40411;50.090;21.954;2023-06-14T11:57:22;13.50;;;6.18;;
54502;SDS011;40411;50.090;21.954;2023-06-14T11:59:48;11.50;;;6.72;;
54502;SDS011;40411;50.090;21.954;2023-06-14T12:02:15;17.27;;;7.72;;
54502;SDS011;40411;50.090;21.954;2023-06-14T12:04:49;13.48;;;7.35;;
54502;SDS011;40411;50.090;21.954;2023-06-14T12:07:16;11.00;;;7.20;;
54502;SDS011;40411;50.090;21.954;2023-06-14T12:12:21;12.95;;;7.30;;
54502;SDS011;40411;50.090;21.954;2023-06-14T12:14:48;12.52;;;8.70;;
54502;SDS011;40411;50.090;21.954;2023-06-14T12:17:16;13.77;;;8.20;;
54502;SDS011;40411;50.090;21.954;2023-06-14T12:19:44;13.30;;;7.32;;
54502;SDS011;40411;50.090;21.954;2023-06-14T12:22:11;14.13;;;7.63;;
54502;SDS011;40411;50.090;21.954;2023-06-14T12:24:43;12.90;;;7.85;;
54502;SDS011;40411;50.090;21.954;2023-06-14T12:27:09;10.93;;;7.57;;
54502;SDS011;40411;50.090;21.954;2023-06-14T12:29:41;12.20;;;7.32;;
54502;SDS011;40411;50.090;21.954;2023-06-14T12:32:10;16.98;;;7.30;;
54502;SDS011;40411;50.090;21.954;2023-06-14T12:34:37;13.80;;;7.70;;
54502;SDS011;40411;50.090;21.954;2023-06-14T12:37:02;10.98;;;7.50;;
54502;SDS011;40411;50.090;21.954;2023-06-14T12:39:32;12.30;;;7.25;;
54502;SDS011;40411;50.090;21.954;2023-06-14T12:41:58;10.77;;;7.55;;
54502;SDS011;40411;50.090;21.954;2023-06-14T12:44:24;9.02;;;6.72;;
54502;SDS011;40411;50.090;21.954;2023-06-14T12:46:49;10.57;;;6.55;;
54502;SDS011;40411;50.090;21.954;2023-06-14T12:49:17;11.07;;;6.78;;
54502;SDS011;40411;50.090;21.954;2023-06-14T12:51:43;11.93;;;7.30;;
54502;SDS011;40411;50.090;21.954;2023-06-14T12:54:09;11.25;;;7.18;;
54502;SDS011;40411;50.090;21.954;2023-06-14T12:56:35;13.05;;;7.28;;
54502;SDS011;40411;50.090;21.954;2023-06-14T12:59:01;12.00;;;8.05;;
54502;SDS011;40411;50.090;21.954;2023-06-14T13:01:27;13.27;;;7.70;;
54502;SDS011;40411;50.090;21.954;2023-06-14T13:03:53;20.98;;;7.45;;
54502;SDS011;40411;50.090;21.954;2023-06-14T13:06:22;9.98;;;7.57;;
54502;SDS011;40411;50.090;21.954;2023-06-14T13:08:48;14.43;;;7.60;;
54502;SDS011;40411;50.090;21.954;2023-06-14T13:11:15;10.88;;;7.05;;
54502;SDS011;40411;50.090;21.954;2023-06-14T13:13:41;11.35;;;6.90;;
54502;SDS011;40411;50.090;21.954;2023-06-14T13:16:07;16.45;;;7.43;;
54502;SDS011;40411;50.090;21.954;2023-06-14T13:18:33;14.20;;;7.43;;
54502;SDS011;40411;50.090;21.954;2023-06-14T13:20:59;13.25;;;6.78;;
54502;SDS011;40411;50.090;21.954;2023-06-14T13:23:28;10.35;;;6.60;;
54502;SDS011;40411;50.090;21.954;2023-06-14T13:25:54;10.93;;;6.07;;
54502;SDS011;40411;50.090;21.954;2023-06-14T13:28:20;11.23;;;6.97;;
54502;SDS011;40411;50.090;21.954;2023-06-14T13:30:46;12.50;;;6.38;;
54502;SDS011;40411;50.090;21.954;2023-06-14T13:33:12;11.55;;;7.03;;
54502;SDS011;40411;50.090;21.954;2023-06-14T13:35:39;12.40;;;6.75;;
54502;SDS011;40411;50.090;21.954;2023-06-14T13:38:05;9.15;;;6.15;;
54502;SDS011;40411;50.090;21.954;2023-06-14T13:40:30;11.10;;;6.10;;
54502;SDS011;40411;50.090;21.954;2023-06-14T13:42:56;8.73;;;6.55;;
54502;SDS011;40411;50.090;21.954;2023-06-14T13:45:22;11.32;;;6.80;;
54502;SDS011;40411;50.090;21.954;2023-06-14T13:47:48;9.80;;;6.43;;
54502;SDS011;40411;50.090;21.954;2023-06-14T13:50:14;10.60;;;6.75;;
54502;SDS011;40411;50.090;21.954;2023-06-14T13:52:42;12.88;;;6.95;;
54502;SDS011;40411;50.090;21.954;2023-06-14T13:55:07;20.02;;;7.28;;
54502;SDS011;40411;50.090;21.954;2023-06-14T13:57:35;14.50;;;6.72;;
54502;SDS011;40411;50.090;21.954;2023-06-14T14:00:00;11.13;;;6.95;;
54502;SDS011;40411;50.090;21.954;2023-06-14T14:02:27;13.27;;;7.65;;
54502;SDS011;40411;50.090;21.954;2023-06-14T14:04:54;17.35;;;8.40;;
54502;SDS011;40411;50.090;21.954;2023-06-14T14:07:21;14.15;;;7.50;;
54502;SDS011;40411;50.090;21.954;2023-06-14T14:09:47;19.45;;;7.55;;
54502;SDS011;40411;50.090;21.954;2023-06-14T14:12:13;14.95;;;7.32;;
54502;SDS011;40411;50.090;21.954;2023-06-14T14:14:40;14.45;;;7.07;;
54502;SDS011;40411;50.090;21.954;2023-06-14T14:17:06;14.02;;;7.65;;
54502;SDS011;40411;50.090;21.954;2023-06-14T14:19:32;12.77;;;7.72;;
54502;SDS011;40411;50.090;21.954;2023-06-14T14:21:58;17.40;;;7.68;;
54502;SDS011;40411;50.090;21.954;2023-06-14T14:24:24;11.20;;;7.00;;
54502;SDS011;40411;50.090;21.954;2023-06-14T14:26:51;18.92;;;7.60;;
54502;SDS011;40411;50.090;21.954;2023-06-14T14:29:19;18.13;;;8.13;;
54502;SDS011;40411;50.090;21.954;2023-06-14T14:31:45;13.50;;;7.85;;
54502;SDS011;40411;50.090;21.954;2023-06-14T14:34:11;12.88;;;7.93;;
54502;SDS011;40411;50.090;21.954;2023-06-14T14:36:38;12.52;;;7.70;;
54502;SDS011;40411;50.090;21.954;2023-06-14T14:39:08;11.43;;;8.05;;
54502;SDS011;40411;50.090;21.954;2023-06-14T14:41:34;9.63;;;6.82;;
54502;SDS011;40411;50.090;21.954;2023-06-14T14:44:00;9.77;;;7.38;;
54502;SDS011;40411;50.090;21.954;2023-06-14T14:46:27;11.05;;;7.32;;
54502;SDS011;40411;50.090;21.954;2023-06-14T14:48:53;12.40;;;7.70;;
54502;SDS011;40411;50.090;21.954;2023-06-14T14:51:19;13.75;;;8.20;;
54502;SDS011;40411;50.090;21.954;2023-06-14T14:53:45;17.00;;;7.90;;
54502;SDS011;40411;50.090;21.954;2023-06-14T14:56:11;14.70;;;7.55;;
54502;SDS011;40411;50.090;21.954;2023-06-14T14:58:37;13.05;;;7.88;;